Ana Sayfa
METAR-TAF:

METAR-TAF

Havaalanları :

Nueces County Airport

Robstown, Teksas, Amerika Birleşik Devletleri

Enlem: 27-46-42N, Boylam: 097-41-25W, yükseklik: 24 m

Güncel hava durumu gözlemi

Rapor saat 04:55 UTC de 16 dakika önce yapıldı.
Rüzgar güney/güneydoğudan 10 kt
Sıcaklık 27°C
Nem 84%
Basınç 1012 hPa
Görüş mesafesi: 16.1 km
2500 ft yükseklikte parçalı bulutlu

METAR: KRBO 160455Z AUTO 16010KT 10SM SCT025 27/24 A2989 RMK AO2 T02700237

Saat: 00:11 (05:11 UTC)


TAF: eksik

4.000'den fazla havaalanı için hava durumu gözlemleri ve tahminleri (METAR ve TAF raporları).

Kullanılabilir istasyonlar harita üzerinde sarı ve kırmızı noktalarla gösterilir.

İstasyonun adını görmek için fareyi noktanın üzerinde gezdirin.

Sonrasında hava gözlem ve tahminlerini görmek için tıklayın.

Haritayı değiştirmek için: yaklaştırmak için siyah artı işaretli yeşil düğmeye ve uzaklaştırmak için de eksi işaretli düğmeye hızla tıklayın; bitişik haritalar için yeşil okları kullanın.


METAR-TAF: